首页
METAR-TAF:

METAR-TAF

机场 :

法阿國際機場

大溪地, 法属波利尼西亚

纬度: 17-33S, 经度: 149-37W, 海拔: 2米

当前天气观测

该预报发布于20分钟前的04:00 UTC
风速4节,风向南转西南,在南转南东西转西南之间变化
温度 27°C
湿度 70%
气压 1014 hPa
能见度10公里或以上
少量云层高于2300英尺

METAR: NTAA 230400Z 20004KT 160V240 9999 FEW023 27/21 Q1014 WS ALL RWY NOSIG

时间: 18:20 (04:20 UTC)

预报

该预报发布于5小时和20分钟前的23:00 UTC
预报有效从23日的 00点(UTC)到 24日的 06点(UTC)
风速12节,风向东北
能见度10公里或以上
散云层高于2000英尺
散云层高于5000英尺
成为
从 23日的 06点(UTC)到 23日的 08点(UTC)
风速5节,风向多变

TAF: NTAA 222300Z 2300/2406 05012KT 9999 SCT020 SCT050 BECMG 2306/2308 VRB05KT

超过4000个机场的气象观测和天气预报(METAR&TAF报告)。

可查询的气象台以黄色和红色小点在地图上表示。

将鼠标移到小点上方,可查看气象台名称。

然后点击查看天气观测和预报。

如需切换地图:点击带黑十字的绿色按钮放大地图;点击带横线的绿色按钮缩小地图;或者点击绿色箭头查看邻近地区的地图。


METAR-TAF: